sensor_id;sensor_type;location;lat;lon;timestamp;P1;durP1;ratioP1;P2;durP2;ratioP2
19923;SDS011;10124;53.068;18.224;2022-09-30T00:01:33;48.90;;;33.10;;
19923;SDS011;10124;53.068;18.224;2022-09-30T00:04:01;46.10;;;32.10;;
19923;SDS011;10124;53.068;18.224;2022-09-30T00:06:29;47.00;;;30.77;;
19923;SDS011;10124;53.068;18.224;2022-09-30T00:08:58;56.33;;;36.97;;
19923;SDS011;10124;53.068;18.224;2022-09-30T00:11:26;55.63;;;37.83;;
19923;SDS011;10124;53.068;18.224;2022-09-30T00:13:57;51.87;;;36.23;;
19923;SDS011;10124;53.068;18.224;2022-09-30T00:16:25;49.00;;;32.03;;
19923;SDS011;10124;53.068;18.224;2022-09-30T00:18:55;47.00;;;33.73;;
19923;SDS011;10124;53.068;18.224;2022-09-30T00:21:24;60.13;;;37.67;;
19923;SDS011;10124;53.068;18.224;2022-09-30T00:23:54;53.13;;;37.93;;
19923;SDS011;10124;53.068;18.224;2022-09-30T00:26:22;56.27;;;38.87;;
19923;SDS011;10124;53.068;18.224;2022-09-30T00:28:50;48.23;;;31.73;;
19923;SDS011;10124;53.068;18.224;2022-09-30T00:31:20;57.93;;;36.10;;
19923;SDS011;10124;53.068;18.224;2022-09-30T00:33:49;62.33;;;36.47;;
19923;SDS011;10124;53.068;18.224;2022-09-30T00:39:18;55.83;;;36.37;;
19923;SDS011;10124;53.068;18.224;2022-09-30T00:41:49;54.57;;;37.80;;
19923;SDS011;10124;53.068;18.224;2022-09-30T00:50:05;51.37;;;32.53;;
19923;SDS011;10124;53.068;18.224;2022-09-30T00:53:11;48.13;;;31.20;;
19923;SDS011;10124;53.068;18.224;2022-09-30T00:55:45;39.93;;;28.13;;
19923;SDS011;10124;53.068;18.224;2022-09-30T00:58:23;49.20;;;31.33;;
19923;SDS011;10124;53.068;18.224;2022-09-30T01:00:53;44.67;;;30.73;;
19923;SDS011;10124;53.068;18.224;2022-09-30T01:03:21;45.43;;;34.10;;
19923;SDS011;10124;53.068;18.224;2022-09-30T01:05:49;42.03;;;29.97;;
19923;SDS011;10124;53.068;18.224;2022-09-30T01:08:18;47.67;;;31.27;;
19923;SDS011;10124;53.068;18.224;2022-09-30T01:10:46;48.53;;;32.63;;
19923;SDS011;10124;53.068;18.224;2022-09-30T01:13:14;41.30;;;29.60;;
19923;SDS011;10124;53.068;18.224;2022-09-30T01:15:55;43.83;;;30.50;;
19923;SDS011;10124;53.068;18.224;2022-09-30T01:32:43;47.70;;;31.77;;
19923;SDS011;10124;53.068;18.224;2022-09-30T01:35:30;48.13;;;34.33;;
19923;SDS011;10124;53.068;18.224;2022-09-30T01:40:46;49.67;;;32.57;;
19923;SDS011;10124;53.068;18.224;2022-09-30T01:43:45;52.23;;;32.87;;
19923;SDS011;10124;53.068;18.224;2022-09-30T01:46:28;59.63;;;36.97;;
19923;SDS011;10124;53.068;18.224;2022-09-30T01:52:02;58.47;;;36.43;;
19923;SDS011;10124;53.068;18.224;2022-09-30T01:57:16;59.90;;;37.30;;
19923;SDS011;10124;53.068;18.224;2022-09-30T01:59:56;60.37;;;37.97;;
19923;SDS011;10124;53.068;18.224;2022-09-30T02:02:36;66.67;;;40.67;;
19923;SDS011;10124;53.068;18.224;2022-09-30T02:05:11;69.57;;;38.67;;
19923;SDS011;10124;53.068;18.224;2022-09-30T02:08:06;87.67;;;46.87;;
19923;SDS011;10124;53.068;18.224;2022-09-30T02:10:53;73.80;;;43.13;;
19923;SDS011;10124;53.068;18.224;2022-09-30T02:13:47;67.67;;;43.87;;
19923;SDS011;10124;53.068;18.224;2022-09-30T02:16:21;66.63;;;40.90;;
19923;SDS011;10124;53.068;18.224;2022-09-30T02:18:54;62.53;;;40.63;;
19923;SDS011;10124;53.068;18.224;2022-09-30T02:21:59;93.20;;;47.37;;
19923;SDS011;10124;53.068;18.224;2022-09-30T02:24:33;101.43;;;52.27;;
19923;SDS011;10124;53.068;18.224;2022-09-30T02:27:07;111.97;;;54.40;;
19923;SDS011;10124;53.068;18.224;2022-09-30T02:29:41;130.40;;;55.57;;
19923;SDS011;10124;53.068;18.224;2022-09-30T02:32:26;110.10;;;52.47;;
19923;SDS011;10124;53.068;18.224;2022-09-30T02:35:10;76.43;;;47.60;;
19923;SDS011;10124;53.068;18.224;2022-09-30T02:37:44;97.93;;;51.37;;
19923;SDS011;10124;53.068;18.224;2022-09-30T02:40:36;133.83;;;55.83;;
19923;SDS011;10124;53.068;18.224;2022-09-30T02:43:07;105.47;;;54.13;;
19923;SDS011;10124;53.068;18.224;2022-09-30T02:45:47;125.30;;;56.30;;
19923;SDS011;10124;53.068;18.224;2022-09-30T02:48:54;261.50;;;67.63;;
19923;SDS011;10124;53.068;18.224;2022-09-30T02:51:48;245.90;;;61.03;;
19923;SDS011;10124;53.068;18.224;2022-09-30T03:00:11;90.47;;;50.83;;
19923;SDS011;10124;53.068;18.224;2022-09-30T03:02:40;85.53;;;48.53;;
19923;SDS011;10124;53.068;18.224;2022-09-30T03:05:08;83.80;;;49.30;;
19923;SDS011;10124;53.068;18.224;2022-09-30T03:07:36;86.57;;;51.10;;
19923;SDS011;10124;53.068;18.224;2022-09-30T03:10:16;93.17;;;44.97;;
19923;SDS011;10124;53.068;18.224;2022-09-30T03:13:05;104.00;;;49.17;;
19923;SDS011;10124;53.068;18.224;2022-09-30T03:30:22;115.20;;;47.10;;
19923;SDS011;10124;53.068;18.224;2022-09-30T03:32:58;87.50;;;45.30;;
19923;SDS011;10124;53.068;18.224;2022-09-30T03:36:14;73.43;;;43.93;;
19923;SDS011;10124;53.068;18.224;2022-09-30T03:38:31;64.57;;;42.67;;
19923;SDS011;10124;53.068;18.224;2022-09-30T03:43:55;63.90;;;42.37;;
19923;SDS011;10124;53.068;18.224;2022-09-30T03:46:47;63.00;;;40.87;;
19923;SDS011;10124;53.068;18.224;2022-09-30T03:49:20;68.03;;;42.53;;
19923;SDS011;10124;53.068;18.224;2022-09-30T03:51:51;62.47;;;40.93;;
19923;SDS011;10124;53.068;18.224;2022-09-30T03:54:24;59.63;;;40.03;;
19923;SDS011;10124;53.068;18.224;2022-09-30T03:56:52;68.37;;;42.83;;
19923;SDS011;10124;53.068;18.224;2022-09-30T03:59:26;64.47;;;41.67;;
19923;SDS011;10124;53.068;18.224;2022-09-30T04:01:54;67.20;;;42.97;;
19923;SDS011;10124;53.068;18.224;2022-09-30T04:04:27;72.03;;;44.37;;
19923;SDS011;10124;53.068;18.224;2022-09-30T04:06:55;65.83;;;41.63;;
19923;SDS011;10124;53.068;18.224;2022-09-30T04:09:22;55.60;;;38.10;;
19923;SDS011;10124;53.068;18.224;2022-09-30T04:11:50;69.23;;;42.13;;
19923;SDS011;10124;53.068;18.224;2022-09-30T04:14:17;62.10;;;42.10;;
19923;SDS011;10124;53.068;18.224;2022-09-30T04:16:45;57.97;;;38.80;;
19923;SDS011;10124;53.068;18.224;2022-09-30T04:19:19;61.60;;;41.00;;
19923;SDS011;10124;53.068;18.224;2022-09-30T04:21:46;74.17;;;46.00;;
19923;SDS011;10124;53.068;18.224;2022-09-30T04:24:16;73.37;;;43.57;;
19923;SDS011;10124;53.068;18.224;2022-09-30T04:26:44;72.13;;;45.40;;
19923;SDS011;10124;53.068;18.224;2022-09-30T04:29:12;75.23;;;46.13;;
19923;SDS011;10124;53.068;18.224;2022-09-30T04:31:40;93.47;;;48.80;;
19923;SDS011;10124;53.068;18.224;2022-09-30T04:34:07;89.20;;;50.57;;
19923;SDS011;10124;53.068;18.224;2022-09-30T04:36:37;83.77;;;48.33;;
19923;SDS011;10124;53.068;18.224;2022-09-30T04:39:05;89.03;;;47.77;;
19923;SDS011;10124;53.068;18.224;2022-09-30T04:41:33;81.97;;;46.97;;
19923;SDS011;10124;53.068;18.224;2022-09-30T04:44:00;89.60;;;48.63;;
19923;SDS011;10124;53.068;18.224;2022-09-30T04:46:32;87.03;;;47.20;;
19923;SDS011;10124;53.068;18.224;2022-09-30T04:49:03;91.07;;;51.13;;
19923;SDS011;10124;53.068;18.224;2022-09-30T04:51:35;91.07;;;51.30;;
19923;SDS011;10124;53.068;18.224;2022-09-30T04:54:04;105.93;;;54.37;;
19923;SDS011;10124;53.068;18.224;2022-09-30T04:56:32;88.67;;;46.27;;
19923;SDS011;10124;53.068;18.224;2022-09-30T04:58:59;88.57;;;46.63;;
19923;SDS011;10124;53.068;18.224;2022-09-30T05:01:26;81.90;;;44.80;;
19923;SDS011;10124;53.068;18.224;2022-09-30T05:03:53;85.33;;;42.70;;
19923;SDS011;10124;53.068;18.224;2022-09-30T05:06:21;94.47;;;47.13;;
19923;SDS011;10124;53.068;18.224;2022-09-30T05:08:48;94.07;;;49.53;;
19923;SDS011;10124;53.068;18.224;2022-09-30T05:11:16;69.60;;;42.33;;
19923;SDS011;10124;53.068;18.224;2022-09-30T05:13:45;85.53;;;47.13;;
19923;SDS011;10124;53.068;18.224;2022-09-30T05:16:14;98.67;;;51.47;;
19923;SDS011;10124;53.068;18.224;2022-09-30T05:18:43;85.73;;;48.67;;
19923;SDS011;10124;53.068;18.224;2022-09-30T05:21:13;83.80;;;47.90;;
19923;SDS011;10124;53.068;18.224;2022-09-30T05:23:42;111.07;;;48.93;;
19923;SDS011;10124;53.068;18.224;2022-09-30T05:26:10;89.33;;;46.80;;
19923;SDS011;10124;53.068;18.224;2022-09-30T05:28:40;78.30;;;46.23;;
19923;SDS011;10124;53.068;18.224;2022-09-30T05:31:09;85.33;;;47.47;;
19923;SDS011;10124;53.068;18.224;2022-09-30T05:33:38;90.83;;;47.57;;
19923;SDS011;10124;53.068;18.224;2022-09-30T05:36:07;70.33;;;40.23;;
19923;SDS011;10124;53.068;18.224;2022-09-30T05:38:37;80.03;;;44.47;;
19923;SDS011;10124;53.068;18.224;2022-09-30T05:41:05;147.17;;;50.27;;
19923;SDS011;10124;53.068;18.224;2022-09-30T05:43:34;93.30;;;47.10;;
19923;SDS011;10124;53.068;18.224;2022-09-30T05:46:07;92.83;;;42.83;;
19923;SDS011;10124;53.068;18.224;2022-09-30T05:48:34;62.97;;;38.50;;
19923;SDS011;10124;53.068;18.224;2022-09-30T05:51:01;69.47;;;40.50;;
19923;SDS011;10124;53.068;18.224;2022-09-30T05:53:30;96.93;;;42.47;;
19923;SDS011;10124;53.068;18.224;2022-09-30T05:55:57;64.23;;;41.10;;
19923;SDS011;10124;53.068;18.224;2022-09-30T05:58:25;74.83;;;40.60;;
19923;SDS011;10124;53.068;18.224;2022-09-30T06:00:53;95.37;;;40.90;;
19923;SDS011;10124;53.068;18.224;2022-09-30T06:03:21;76.70;;;38.77;;
19923;SDS011;10124;53.068;18.224;2022-09-30T06:05:54;66.73;;;37.33;;
19923;SDS011;10124;53.068;18.224;2022-09-30T06:08:22;63.13;;;39.10;;
19923;SDS011;10124;53.068;18.224;2022-09-30T06:10:50;60.47;;;37.57;;
19923;SDS011;10124;53.068;18.224;2022-09-30T06:13:18;55.00;;;34.53;;
19923;SDS011;10124;53.068;18.224;2022-09-30T06:16:08;48.80;;;32.57;;
19923;SDS011;10124;53.068;18.224;2022-09-30T06:18:36;45.57;;;32.07;;
19923;SDS011;10124;53.068;18.224;2022-09-30T06:21:10;53.57;;;32.40;;
19923;SDS011;10124;53.068;18.224;2022-09-30T06:23:39;116.63;;;37.73;;
19923;SDS011;10124;53.068;18.224;2022-09-30T06:26:08;52.57;;;32.50;;
19923;SDS011;10124;53.068;18.224;2022-09-30T06:28:38;90.73;;;35.03;;
19923;SDS011;10124;53.068;18.224;2022-09-30T06:31:07;50.47;;;31.57;;
19923;SDS011;10124;53.068;18.224;2022-09-30T06:33:34;67.73;;;34.50;;
19923;SDS011;10124;53.068;18.224;2022-09-30T06:36:02;67.00;;;32.83;;
19923;SDS011;10124;53.068;18.224;2022-09-30T06:38:31;91.77;;;37.97;;
19923;SDS011;10124;53.068;18.224;2022-09-30T06:40:59;38.57;;;29.47;;
19923;SDS011;10124;53.068;18.224;2022-09-30T06:43:27;86.73;;;33.33;;
19923;SDS011;10124;53.068;18.224;2022-09-30T06:45:55;50.13;;;29.13;;
19923;SDS011;10124;53.068;18.224;2022-09-30T06:48:39;65.43;;;31.50;;
19923;SDS011;10124;53.068;18.224;2022-09-30T06:51:07;98.77;;;32.67;;
19923;SDS011;10124;53.068;18.224;2022-09-30T06:53:37;39.57;;;26.33;;
19923;SDS011;10124;53.068;18.224;2022-09-30T06:56:06;36.93;;;27.10;;
19923;SDS011;10124;53.068;18.224;2022-09-30T06:58:34;38.47;;;26.43;;
19923;SDS011;10124;53.068;18.224;2022-09-30T07:01:05;40.57;;;28.30;;
19923;SDS011;10124;53.068;18.224;2022-09-30T07:03:34;40.37;;;28.20;;
19923;SDS011;10124;53.068;18.224;2022-09-30T07:06:03;42.97;;;25.47;;
19923;SDS011;10124;53.068;18.224;2022-09-30T07:08:32;56.27;;;26.77;;
19923;SDS011;10124;53.068;18.224;2022-09-30T07:11:02;43.47;;;27.03;;
19923;SDS011;10124;53.068;18.224;2022-09-30T07:13:33;44.10;;;27.97;;
19923;SDS011;10124;53.068;18.224;2022-09-30T07:16:01;39.43;;;27.47;;
19923;SDS011;10124;53.068;18.224;2022-09-30T07:18:28;37.93;;;26.30;;
19923;SDS011;10124;53.068;18.224;2022-09-30T07:20:56;37.70;;;27.00;;
19923;SDS011;10124;53.068;18.224;2022-09-30T07:23:23;34.67;;;25.63;;
19923;SDS011;10124;53.068;18.224;2022-09-30T07:25:55;37.57;;;28.37;;
19923;SDS011;10124;53.068;18.224;2022-09-30T07:28:25;39.83;;;28.93;;
19923;SDS011;10124;53.068;18.224;2022-09-30T07:30:59;42.53;;;28.90;;
19923;SDS011;10124;53.068;18.224;2022-09-30T07:33:53;47.27;;;29.30;;
19923;SDS011;10124;53.068;18.224;2022-09-30T07:36:23;61.73;;;33.20;;
19923;SDS011;10124;53.068;18.224;2022-09-30T07:39:00;64.87;;;36.30;;
19923;SDS011;10124;53.068;18.224;2022-09-30T07:41:34;149.37;;;53.27;;
19923;SDS011;10124;53.068;18.224;2022-09-30T07:44:06;136.10;;;59.60;;
19923;SDS011;10124;53.068;18.224;2022-09-30T07:46:42;182.20;;;70.80;;
19923;SDS011;10124;53.068;18.224;2022-09-30T07:49:13;110.40;;;54.83;;
19923;SDS011;10124;53.068;18.224;2022-09-30T07:51:55;95.27;;;49.00;;
19923;SDS011;10124;53.068;18.224;2022-09-30T07:54:25;60.97;;;35.80;;
19923;SDS011;10124;53.068;18.224;2022-09-30T07:56:55;58.27;;;36.33;;
19923;SDS011;10124;53.068;18.224;2022-09-30T07:59:37;51.37;;;34.23;;
19923;SDS011;10124;53.068;18.224;2022-09-30T08:02:15;48.47;;;32.17;;
19923;SDS011;10124;53.068;18.224;2022-09-30T08:04:45;47.13;;;32.03;;
19923;SDS011;10124;53.068;18.224;2022-09-30T08:07:14;46.10;;;30.17;;
19923;SDS011;10124;53.068;18.224;2022-09-30T08:09:44;48.80;;;30.77;;
19923;SDS011;10124;53.068;18.224;2022-09-30T08:12:12;51.77;;;31.87;;
19923;SDS011;10124;53.068;18.224;2022-09-30T08:14:40;48.47;;;31.13;;
19923;SDS011;10124;53.068;18.224;2022-09-30T08:17:08;44.80;;;30.50;;
19923;SDS011;10124;53.068;18.224;2022-09-30T08:19:36;45.10;;;29.27;;
19923;SDS011;10124;53.068;18.224;2022-09-30T08:22:08;44.43;;;28.37;;
19923;SDS011;10124;53.068;18.224;2022-09-30T08:24:36;56.47;;;33.70;;
19923;SDS011;10124;53.068;18.224;2022-09-30T08:27:05;61.53;;;37.20;;
19923;SDS011;10124;53.068;18.224;2022-09-30T08:29:34;65.63;;;38.67;;
19923;SDS011;10124;53.068;18.224;2022-09-30T08:32:21;67.40;;;39.00;;
19923;SDS011;10124;53.068;18.224;2022-09-30T08:34:49;60.67;;;34.90;;
19923;SDS011;10124;53.068;18.224;2022-09-30T08:37:17;53.37;;;34.70;;
19923;SDS011;10124;53.068;18.224;2022-09-30T08:39:48;55.87;;;35.00;;
19923;SDS011;10124;53.068;18.224;2022-09-30T08:45:17;56.77;;;36.07;;
19923;SDS011;10124;53.068;18.224;2022-09-30T08:51:00;52.17;;;32.00;;
19923;SDS011;10124;53.068;18.224;2022-09-30T08:53:44;48.30;;;32.00;;
19923;SDS011;10124;53.068;18.224;2022-09-30T08:56:19;46.30;;;32.60;;
19923;SDS011;10124;53.068;18.224;2022-09-30T08:59:45;49.23;;;34.13;;
19923;SDS011;10124;53.068;18.224;2022-09-30T09:04:49;71.40;;;48.33;;
19923;SDS011;10124;53.068;18.224;2022-09-30T09:07:21;44.30;;;29.50;;
19923;SDS011;10124;53.068;18.224;2022-09-30T09:12:48;46.47;;;27.67;;
19923;SDS011;10124;53.068;18.224;2022-09-30T09:15:32;36.73;;;25.67;;
19923;SDS011;10124;53.068;18.224;2022-09-30T09:20:56;30.35;;;21.42;;
19923;SDS011;10124;53.068;18.224;2022-09-30T09:23:26;28.55;;;20.92;;
19923;SDS011;10124;53.068;18.224;2022-09-30T09:25:58;26.23;;;19.77;;
19923;SDS011;10124;53.068;18.224;2022-09-30T09:31:17;28.48;;;19.58;;
19923;SDS011;10124;53.068;18.224;2022-09-30T09:33:46;24.83;;;18.60;;
19923;SDS011;10124;53.068;18.224;2022-09-30T09:36:25;26.83;;;19.52;;
19923;SDS011;10124;53.068;18.224;2022-09-30T09:42:35;26.15;;;19.02;;
19923;SDS011;10124;53.068;18.224;2022-09-30T09:45:22;26.23;;;18.75;;
19923;SDS011;10124;53.068;18.224;2022-09-30T09:47:58;26.45;;;17.48;;
19923;SDS011;10124;53.068;18.224;2022-09-30T09:56:15;22.13;;;16.25;;
19923;SDS011;10124;53.068;18.224;2022-09-30T10:01:52;22.40;;;16.75;;
19923;SDS011;10124;53.068;18.224;2022-09-30T10:04:23;23.23;;;17.13;;
19923;SDS011;10124;53.068;18.224;2022-09-30T10:06:54;22.65;;;16.98;;
19923;SDS011;10124;53.068;18.224;2022-09-30T10:12:16;20.10;;;15.10;;
19923;SDS011;10124;53.068;18.224;2022-09-30T10:14:50;20.30;;;14.30;;
19923;SDS011;10124;53.068;18.224;2022-09-30T10:17:27;18.73;;;15.50;;
19923;SDS011;10124;53.068;18.224;2022-09-30T10:22:34;17.05;;;13.57;;
19923;SDS011;10124;53.068;18.224;2022-09-30T10:25:09;20.02;;;14.35;;
19923;SDS011;10124;53.068;18.224;2022-09-30T10:27:51;19.70;;;13.27;;
19923;SDS011;10124;53.068;18.224;2022-09-30T10:33:00;16.55;;;13.35;;
19923;SDS011;10124;53.068;18.224;2022-09-30T10:35:30;18.35;;;13.10;;
19923;SDS011;10124;53.068;18.224;2022-09-30T10:37:58;17.48;;;13.15;;
19923;SDS011;10124;53.068;18.224;2022-09-30T10:40:27;16.85;;;13.45;;
19923;SDS011;10124;53.068;18.224;2022-09-30T10:42:56;15.75;;;13.07;;
19923;SDS011;10124;53.068;18.224;2022-09-30T10:45:34;15.77;;;12.98;;
19923;SDS011;10124;53.068;18.224;2022-09-30T10:48:12;21.23;;;12.57;;
19923;SDS011;10124;53.068;18.224;2022-09-30T10:50:49;14.68;;;11.23;;
19923;SDS011;10124;53.068;18.224;2022-09-30T10:53:25;14.70;;;11.25;;
19923;SDS011;10124;53.068;18.224;2022-09-30T10:55:55;11.70;;;10.02;;
19923;SDS011;10124;53.068;18.224;2022-09-30T10:58:24;14.07;;;11.52;;
19923;SDS011;10124;53.068;18.224;2022-09-30T11:06:30;11.30;;;7.20;;
19923;SDS011;10124;53.068;18.224;2022-09-30T11:09:03;10.13;;;7.65;;
19923;SDS011;10124;53.068;18.224;2022-09-30T11:11:38;13.00;;;7.18;;
19923;SDS011;10124;53.068;18.224;2022-09-30T11:14:15;9.45;;;6.78;;
19923;SDS011;10124;53.068;18.224;2022-09-30T11:17:07;9.25;;;6.78;;
19923;SDS011;10124;53.068;18.224;2022-09-30T11:19:38;8.70;;;7.20;;
19923;SDS011;10124;53.068;18.224;2022-09-30T11:25:11;9.63;;;7.78;;
19923;SDS011;10124;53.068;18.224;2022-09-30T11:28:00;10.80;;;8.05;;
19923;SDS011;10124;53.068;18.224;2022-09-30T11:31:05;10.77;;;8.35;;
19923;SDS011;10124;53.068;18.224;2022-09-30T11:36:30;12.15;;;8.48;;
19923;SDS011;10124;53.068;18.224;2022-09-30T11:41:28;13.75;;;8.63;;
19923;SDS011;10124;53.068;18.224;2022-09-30T11:44:13;14.80;;;9.07;;
19923;SDS011;10124;53.068;18.224;2022-09-30T14:38:59;148.50;;;72.83;;
19923;SDS011;10124;53.068;18.224;2022-09-30T14:41:33;23.73;;;13.77;;
19923;SDS011;10124;53.068;18.224;2022-09-30T14:44:01;333.43;;;33.63;;
19923;SDS011;10124;53.068;18.224;2022-09-30T14:46:32;120.47;;;17.97;;
19923;SDS011;10124;53.068;18.224;2022-09-30T14:49:05;19.30;;;7.90;;
19923;SDS011;10124;53.068;18.224;2022-09-30T14:51:42;21.48;;;8.80;;
19923;SDS011;10124;53.068;18.224;2022-09-30T14:54:20;20.00;;;7.25;;
19923;SDS011;10124;53.068;18.224;2022-09-30T14:56:49;11.27;;;6.03;;
19923;SDS011;10124;53.068;18.224;2022-09-30T14:59:21;8.98;;;6.32;;
19923;SDS011;10124;53.068;18.224;2022-09-30T15:01:58;13.63;;;8.43;;
19923;SDS011;10124;53.068;18.224;2022-09-30T15:04:28;20.48;;;6.03;;
19923;SDS011;10124;53.068;18.224;2022-09-30T15:06:58;14.75;;;6.35;;
19923;SDS011;10124;53.068;18.224;2022-09-30T15:09:30;24.23;;;10.82;;
19923;SDS011;10124;53.068;18.224;2022-09-30T15:12:14;16.48;;;6.78;;
19923;SDS011;10124;53.068;18.224;2022-09-30T15:14:47;15.20;;;6.30;;
19923;SDS011;10124;53.068;18.224;2022-09-30T15:17:22;11.97;;;6.53;;
19923;SDS011;10124;53.068;18.224;2022-09-30T15:19:53;12.07;;;5.37;;
19923;SDS011;10124;53.068;18.224;2022-09-30T15:22:22;10.67;;;6.20;;
19923;SDS011;10124;53.068;18.224;2022-09-30T15:24:54;11.50;;;6.20;;
19923;SDS011;10124;53.068;18.224;2022-09-30T15:27:25;17.13;;;6.93;;
19923;SDS011;10124;53.068;18.224;2022-09-30T15:30:41;16.17;;;6.60;;
19923;SDS011;10124;53.068;18.224;2022-09-30T15:33:00;8.20;;;6.33;;
19923;SDS011;10124;53.068;18.224;2022-09-30T15:35:30;11.27;;;5.70;;
19923;SDS011;10124;53.068;18.224;2022-09-30T15:38:09;27.87;;;12.97;;
19923;SDS011;10124;53.068;18.224;2022-09-30T15:40:47;10.13;;;6.80;;
19923;SDS011;10124;53.068;18.224;2022-09-30T15:43:29;11.50;;;7.10;;
19923;SDS011;10124;53.068;18.224;2022-09-30T15:46:22;13.33;;;7.03;;
19923;SDS011;10124;53.068;18.224;2022-09-30T15:48:58;21.07;;;12.30;;
19923;SDS011;10124;53.068;18.224;2022-09-30T15:51:39;25.10;;;10.70;;
19923;SDS011;10124;53.068;18.224;2022-09-30T15:56:52;16.83;;;7.17;;
19923;SDS011;10124;53.068;18.224;2022-09-30T15:59:19;10.23;;;7.10;;
19923;SDS011;10124;53.068;18.224;2022-09-30T16:01:49;43.50;;;17.83;;
19923;SDS011;10124;53.068;18.224;2022-09-30T16:09:27;102.53;;;43.83;;
19923;SDS011;10124;53.068;18.224;2022-09-30T16:12:15;71.40;;;35.07;;
19923;SDS011;10124;53.068;18.224;2022-09-30T16:14:50;66.77;;;28.17;;
19923;SDS011;10124;53.068;18.224;2022-09-30T16:17:22;18.13;;;10.07;;
19923;SDS011;10124;53.068;18.224;2022-09-30T16:20:39;10.67;;;8.20;;
19923;SDS011;10124;53.068;18.224;2022-09-30T16:25:29;15.03;;;10.17;;
19923;SDS011;10124;53.068;18.224;2022-09-30T16:28:09;18.63;;;10.93;;
19923;SDS011;10124;53.068;18.224;2022-09-30T16:30:43;24.60;;;12.03;;
19923;SDS011;10124;53.068;18.224;2022-09-30T16:33:18;18.90;;;12.93;;
19923;SDS011;10124;53.068;18.224;2022-09-30T16:35:46;17.97;;;13.47;;
19923;SDS011;10124;53.068;18.224;2022-09-30T16:38:15;26.00;;;15.27;;
19923;SDS011;10124;53.068;18.224;2022-09-30T16:40:45;30.83;;;14.73;;
19923;SDS011;10124;53.068;18.224;2022-09-30T16:43:12;25.60;;;15.23;;
19923;SDS011;10124;53.068;18.224;2022-09-30T16:45:40;31.53;;;15.83;;
19923;SDS011;10124;53.068;18.224;2022-09-30T16:48:15;29.20;;;17.93;;
19923;SDS011;10124;53.068;18.224;2022-09-30T16:50:56;35.77;;;19.53;;
19923;SDS011;10124;53.068;18.224;2022-09-30T16:53:30;38.83;;;21.20;;
19923;SDS011;10124;53.068;18.224;2022-09-30T16:55:57;43.50;;;24.37;;
19923;SDS011;10124;53.068;18.224;2022-09-30T16:58:26;38.27;;;21.50;;
19923;SDS011;10124;53.068;18.224;2022-09-30T17:00:54;35.90;;;20.03;;
19923;SDS011;10124;53.068;18.224;2022-09-30T17:03:23;38.30;;;20.90;;
19923;SDS011;10124;53.068;18.224;2022-09-30T17:05:51;53.83;;;28.47;;
19923;SDS011;10124;53.068;18.224;2022-09-30T17:08:19;55.20;;;30.00;;
19923;SDS011;10124;53.068;18.224;2022-09-30T17:10:51;67.87;;;31.23;;
19923;SDS011;10124;53.068;18.224;2022-09-30T17:13:19;59.73;;;31.40;;
19923;SDS011;10124;53.068;18.224;2022-09-30T17:15:48;56.60;;;29.23;;
19923;SDS011;10124;53.068;18.224;2022-09-30T17:18:18;55.27;;;29.93;;
19923;SDS011;10124;53.068;18.224;2022-09-30T17:20:47;55.70;;;28.80;;
19923;SDS011;10124;53.068;18.224;2022-09-30T17:23:20;50.07;;;26.33;;
19923;SDS011;10124;53.068;18.224;2022-09-30T17:25:50;54.40;;;28.97;;
19923;SDS011;10124;53.068;18.224;2022-09-30T17:28:18;52.87;;;28.17;;
19923;SDS011;10124;53.068;18.224;2022-09-30T17:30:47;48.57;;;25.57;;
19923;SDS011;10124;53.068;18.224;2022-09-30T17:33:16;44.13;;;24.90;;
19923;SDS011;10124;53.068;18.224;2022-09-30T17:36:00;42.60;;;25.40;;
19923;SDS011;10124;53.068;18.224;2022-09-30T17:38:30;43.60;;;22.73;;
19923;SDS011;10124;53.068;18.224;2022-09-30T17:40:59;40.90;;;20.67;;
19923;SDS011;10124;53.068;18.224;2022-09-30T17:43:46;33.97;;;20.30;;
19923;SDS011;10124;53.068;18.224;2022-09-30T17:46:15;34.43;;;21.70;;
19923;SDS011;10124;53.068;18.224;2022-09-30T17:48:45;35.70;;;18.97;;
19923;SDS011;10124;53.068;18.224;2022-09-30T17:51:13;36.53;;;22.07;;
19923;SDS011;10124;53.068;18.224;2022-09-30T17:53:43;43.97;;;21.00;;
19923;SDS011;10124;53.068;18.224;2022-09-30T17:56:13;53.80;;;31.37;;
19923;SDS011;10124;53.068;18.224;2022-09-30T17:58:46;55.67;;;25.70;;
19923;SDS011;10124;53.068;18.224;2022-09-30T18:01:19;79.17;;;40.37;;
19923;SDS011;10124;53.068;18.224;2022-09-30T18:03:50;47.07;;;26.47;;
19923;SDS011;10124;53.068;18.224;2022-09-30T18:06:19;157.17;;;75.33;;
19923;SDS011;10124;53.068;18.224;2022-09-30T18:08:50;281.07;;;131.27;;
19923;SDS011;10124;53.068;18.224;2022-09-30T18:11:24;125.63;;;61.43;;
19923;SDS011;10124;53.068;18.224;2022-09-30T18:13:54;130.97;;;68.57;;
19923;SDS011;10124;53.068;18.224;2022-09-30T18:16:25;119.97;;;59.43;;
19923;SDS011;10124;53.068;18.224;2022-09-30T18:19:01;76.00;;;42.53;;
19923;SDS011;10124;53.068;18.224;2022-09-30T18:21:33;83.17;;;39.60;;
19923;SDS011;10124;53.068;18.224;2022-09-30T18:24:06;141.27;;;89.10;;
19923;SDS011;10124;53.068;18.224;2022-09-30T18:26:35;115.00;;;68.33;;
19923;SDS011;10124;53.068;18.224;2022-09-30T18:29:04;76.63;;;43.27;;
19923;SDS011;10124;53.068;18.224;2022-09-30T18:31:32;100.20;;;54.87;;
19923;SDS011;10124;53.068;18.224;2022-09-30T18:34:05;281.83;;;145.87;;
19923;SDS011;10124;53.068;18.224;2022-09-30T18:36:33;308.70;;;172.60;;
19923;SDS011;10124;53.068;18.224;2022-09-30T18:39:01;372.93;;;213.13;;
19923;SDS011;10124;53.068;18.224;2022-09-30T18:41:29;386.37;;;227.87;;
19923;SDS011;10124;53.068;18.224;2022-09-30T18:44:01;249.20;;;141.63;;
19923;SDS011;10124;53.068;18.224;2022-09-30T18:46:30;259.27;;;145.70;;
19923;SDS011;10124;53.068;18.224;2022-09-30T18:48:58;257.57;;;142.97;;
19923;SDS011;10124;53.068;18.224;2022-09-30T18:51:27;207.47;;;103.77;;
19923;SDS011;10124;53.068;18.224;2022-09-30T18:53:56;207.60;;;109.63;;
19923;SDS011;10124;53.068;18.224;2022-09-30T18:56:27;185.80;;;93.53;;
19923;SDS011;10124;53.068;18.224;2022-09-30T18:59:02;173.90;;;93.40;;
19923;SDS011;10124;53.068;18.224;2022-09-30T19:01:32;163.57;;;84.10;;
19923;SDS011;10124;53.068;18.224;2022-09-30T19:04:00;156.93;;;83.23;;
19923;SDS011;10124;53.068;18.224;2022-09-30T19:06:30;158.90;;;84.27;;
19923;SDS011;10124;53.068;18.224;2022-09-30T19:08:59;151.70;;;79.50;;
19923;SDS011;10124;53.068;18.224;2022-09-30T19:11:27;134.30;;;74.30;;
19923;SDS011;10124;53.068;18.224;2022-09-30T19:13:57;108.63;;;60.47;;
19923;SDS011;10124;53.068;18.224;2022-09-30T19:16:28;116.37;;;57.43;;
19923;SDS011;10124;53.068;18.224;2022-09-30T19:19:04;118.80;;;55.47;;
19923;SDS011;10124;53.068;18.224;2022-09-30T19:21:35;96.23;;;52.10;;
19923;SDS011;10124;53.068;18.224;2022-09-30T19:24:05;90.07;;;49.17;;
19923;SDS011;10124;53.068;18.224;2022-09-30T19:26:36;73.60;;;41.47;;
19923;SDS011;10124;53.068;18.224;2022-09-30T19:29:05;58.70;;;35.47;;
19923;SDS011;10124;53.068;18.224;2022-09-30T19:31:36;60.20;;;35.70;;